AirNav   Everest Fuels
 
 1328 users online  

4NY9 Belmont Park Heliport
Elmont, New York, USA

GOING TO ELMONT?


FAA INFORMATION EFFECTIVE 18 JUNE 2020

Location

FAA Identifier: 4NY9
Lat/Long: 40-42-52.3680N 073-42-37.4710W
40-42.872800N 073-42.624517W
40.7145467,-73.7104086
(estimated)
Elevation: 72 ft. / 22 m (estimated)
Variation: 13W (1985)
Time zone: UTC -4 (UTC -5 during Standard Time)
Zip code: 11001

Heliport Operations

Heliport use: Private use. Permission required prior to landing
Activation date: 04/1968
Control tower: no
ARTCC: NEW YORK CENTER
FSS: NEW YORK FLIGHT SERVICE STATION
Attendance: UNATNDD
Wind indicator: no
Segmented circle: no

Heliport Communications

WX ASOS at JFK (5 nm SW): 128.725 (718-656-0956)
WX ASOS at LGA (8 nm NW): PHONE 718-672-6317
WX ASOS at FRG (14 nm E): PHONE 631-752-8129
WX AWOS-3PT at JRB (14 nm W): 128.175 (212-425-1534)
WX ASOS at TEB (18 nm NW): 132.025 (201-393-0855)

Nearby radio navigation aids

VOR radial/distance  VOR name  Freq  Var
JFKr042/5.6KENNEDY VOR/DME115.9012W
LGAr132/8.3LA GUARDIA VOR/DME113.1012W
CRIr065/10.4CANARSIE VOR/DME112.3011W
TEBr128/17.9TETERBORO VOR/DME108.4011W
DPKr268/19.1DEER PARK VOR/DME117.7012W
COLr051/31.7COLTS NECK VOR/DME115.4011W
CMKr202/34.4CARMEL VOR/DME116.6012W
BDRr237/37.7BRIDGEPORT VOR/DME108.8012W

 
NDB name  Hdg/Dist  Freq  Var  ID
FRIKK264/11.040714WFR ..-. .-.
BABYLON294/15.027514WBBN -... -... -.
CHATHAM106/32.725413WCAT -.-. .- -

Heliport Services

Airframe service: NONE
Powerplant service: NONE

Runway Information

Helipad H1

Dimensions: 75 x 40 ft. / 23 x 12 m
Surface: turf
Latitude: 40-42.872833N
Longitude: 073-42.624500W
Elevation: 72.0 ft.
Traffic pattern: leftleft

Heliport Ownership and Management from official FAA records

Ownership: Privately-owned
Owner: PO BOX 90
JAMAICA, NY 11417
Phone (718) 659-2293
Manager: ROBERT J. SICA
PO BOX 90
JAMAICA, NY 11417
Phone 718-659-2293

Additional Remarks

A52-H1 GRANDSTAND 0.6MI W. TREES 0.1MI SW 0.1MI E.
FOR CD CTC NEW YORK APCH AT 516-683-2962.

Instrument Procedures

There are no published instrument procedures at 4NY9.

Some nearby airports with instrument procedures:

KJFK - John F Kennedy International Airport (5 nm SW)
KLGA - LaGuardia Airport (8 nm NW)
6N5 - East 34th Street Heliport (12 nm W)
KFRG - Republic Airport (14 nm E)
KJRB - Downtown Manhattan/Wall Street Heliport (14 nm W)
KJRA - West 30th St Heliport (14 nm W)
KTEB - Teterboro Airport (18 nm NW)
 
Loc | Ops | Rwys | IFR | FBO | Links
Com | Nav | Svcs | Stats | Notes
Area around 4NY9 (Belmont Park Heliport)
 
Road maps at: MapQuest Bing Google
 
Aerial photo
No photo
 
Sectional chart

 
Airport distance calculator
Flying to Belmont Park Heliport? Find the distance to fly.

From to 4NY9

Sunrise and sunset
Times for 02-Jul-2020
 Local
(UTC-4)
 Zulu
(UTC)
Morning civil twilight04:5608:56
Sunrise05:2909:29
Sunset20:2900:29
Evening civil twilight21:0201:02

Current date and time
Zulu (UTC)  02-Jul-2020 16:09:57
Local (UTC-4)  02-Jul-2020 12:09:57
 
METAR
KJFK 
6nm SW 
021551Z 35005KT 10SM FEW055 FEW100 FEW250 30/17 A2983 RMK AO2 SLP102 T03000167
KLGA 
9nm NW 
021551Z 31005KT 10SM FEW060 FEW130 29/17 A2982 RMK AO2 SLP098 T02940167
KNYC 
12nm W 
021551Z AUTO VRB03KT 10SM CLR 29/18 A2986 RMK AO2 SLP101 T02890178 $
KFRG 
13nm E 
021553Z 32006KT 10SM CLR 30/17 A2983 RMK AO2 SLP100 T03000172
KJRB 
14nm W 
021556Z AUTO 10SM CLR 28/18 A2984 RMK AO2 SLP105 T02830183 $
KTEB 
18nm NW 
021551Z 01005KT 10SM CLR 30/18 A2981 RMK AO2 SLP095 T03000178
TAF
KJFK 
6nm SW 
021333Z 0214/0318 35005KT P6SM FEW020 SCT150 FM021600 27008KT P6SM FEW060 SCT250 FM021900 18010KT P6SM FEW060 SCT250 FM030500 27006KT P6SM SCT060 BKN150 FM030800 32004KT P6SM SCT140 FM031600 35008KT P6SM SCT140 PROB30 0316/0318 3SM -TSRA BKN040CB
KLGA 
9nm NW 
021333Z 0214/0318 33007KT P6SM FEW060 SCT250 FM021600 30009KT P6SM SCT250 FM022200 18009KT P6SM FEW060 FM030400 24007KT P6SM SCT060 BKN150 FM030700 31005KT P6SM SCT150 FM031600 01007KT P6SM SCT150 PROB30 0316/0318 3SM -TSRA BKN040CB
KTEB 
18nm NW 
021333Z 0214/0318 34006KT P6SM SCT150 FM021600 30006KT P6SM FEW060 SCT250 FM022300 14007KT P6SM FEW060 FM030100 33004KT P6SM SCT060 BKN120 FM031600 35007KT P6SM SCT140 PROB30 0316/0318 3SM -TSRA BKN040CB
NOTAMs
Click for the latest NOTAMs
NOTAMs are issued by the DoD/FAA and will open in a separate window not controlled by AirNav.

 

 
 

Would you like to see your business listed on this page?

 If your business provides an interesting product or service to pilots, flight crews, aircraft, or users of the Belmont Park Heliport, you should consider listing it here.  To start the listing process, click on the button below
 
Add a business
 

Other Pages about Belmont Park Heliport

Update a link
 
Copyright © AirNav, LLC. All rights reserved. Privacy Policy  Contact